sensor_id;sensor_type;location;lat;lon;timestamp;pressure;altitude;pressure_sealevel;temperature;humidity
80128;BME280;69440;52.118;5.408;2024-02-26T00:01:00;100112.31;;;5.73;100.00
80128;BME280;69440;52.118;5.408;2024-02-26T00:03:27;100116.88;;;5.71;100.00
80128;BME280;69440;52.118;5.408;2024-02-26T00:05:54;100119.44;;;5.73;100.00
80128;BME280;69440;52.118;5.408;2024-02-26T00:08:21;100124.00;;;5.71;100.00
80128;BME280;69440;52.118;5.408;2024-02-26T00:10:48;100117.19;;;5.65;100.00
80128;BME280;69440;52.118;5.408;2024-02-26T00:13:14;100121.66;;;5.65;100.00
80128;BME280;69440;52.118;5.408;2024-02-26T00:15:41;100116.63;;;5.58;100.00
80128;BME280;69440;52.118;5.408;2024-02-26T00:18:07;100124.72;;;5.57;100.00
80128;BME280;69440;52.118;5.408;2024-02-26T00:20:34;100122.81;;;5.59;100.00
80128;BME280;69440;52.118;5.408;2024-02-26T00:23:01;100124.00;;;5.53;100.00
80128;BME280;69440;52.118;5.408;2024-02-26T00:25:27;100130.28;;;5.52;100.00
80128;BME280;69440;52.118;5.408;2024-02-26T00:27:54;100122.81;;;5.59;100.00
80128;BME280;69440;52.118;5.408;2024-02-26T00:30:20;100130.03;;;5.57;100.00
80128;BME280;69440;52.118;5.408;2024-02-26T00:32:47;100128.38;;;5.54;100.00
80128;BME280;69440;52.118;5.408;2024-02-26T00:35:14;100127.72;;;5.49;100.00
80128;BME280;69440;52.118;5.408;2024-02-26T00:37:41;100124.19;;;5.49;100.00
80128;BME280;69440;52.118;5.408;2024-02-26T00:40:09;100126.94;;;5.47;100.00
80128;BME280;69440;52.118;5.408;2024-02-26T00:42:36;100129.84;;;5.43;100.00
80128;BME280;69440;52.118;5.408;2024-02-26T00:45:02;100128.97;;;5.42;100.00
80128;BME280;69440;52.118;5.408;2024-02-26T00:47:29;100125.69;;;5.37;100.00
80128;BME280;69440;52.118;5.408;2024-02-26T00:49:55;100135.47;;;5.37;100.00
80128;BME280;69440;52.118;5.408;2024-02-26T00:52:22;100138.13;;;5.37;100.00
80128;BME280;69440;52.118;5.408;2024-02-26T00:54:48;100139.00;;;5.37;100.00
80128;BME280;69440;52.118;5.408;2024-02-26T00:57:15;100133.75;;;5.36;100.00
80128;BME280;69440;52.118;5.408;2024-02-26T00:59:41;100139.06;;;5.36;100.00
80128;BME280;69440;52.118;5.408;2024-02-26T01:02:08;100141.75;;;5.36;100.00
80128;BME280;69440;52.118;5.408;2024-02-26T01:04:34;100139.78;;;5.39;100.00
80128;BME280;69440;52.118;5.408;2024-02-26T01:07:01;100130.06;;;5.38;100.00
80128;BME280;69440;52.118;5.408;2024-02-26T01:09:28;100128.19;;;5.40;100.00
80128;BME280;69440;52.118;5.408;2024-02-26T01:11:55;100127.56;;;5.35;100.00
80128;BME280;69440;52.118;5.408;2024-02-26T01:14:21;100121.38;;;5.35;100.00
80128;BME280;69440;52.118;5.408;2024-02-26T01:16:48;100124.91;;;5.35;100.00
80128;BME280;69440;52.118;5.408;2024-02-26T01:19:14;100125.84;;;5.34;100.00
80128;BME280;69440;52.118;5.408;2024-02-26T01:21:41;100132.19;;;5.32;100.00
80128;BME280;69440;52.118;5.408;2024-02-26T01:24:08;100125.06;;;5.32;100.00
80128;BME280;69440;52.118;5.408;2024-02-26T01:26:34;100126.69;;;5.35;100.00
80128;BME280;69440;52.118;5.408;2024-02-26T01:29:01;100127.56;;;5.35;100.00
80128;BME280;69440;52.118;5.408;2024-02-26T01:31:27;100116.81;;;5.37;100.00
80128;BME280;69440;52.118;5.408;2024-02-26T01:33:54;100117.84;;;5.34;100.00
80128;BME280;69440;52.118;5.408;2024-02-26T01:36:21;100111.56;;;5.35;100.00
80128;BME280;69440;52.118;5.408;2024-02-26T01:38:48;100112.34;;;5.37;100.00
80128;BME280;69440;52.118;5.408;2024-02-26T01:41:14;100112.50;;;5.34;100.00
80128;BME280;69440;52.118;5.408;2024-02-26T01:43:41;100113.22;;;5.38;100.00
80128;BME280;69440;52.118;5.408;2024-02-26T01:46:11;100115.97;;;5.36;100.00
80128;BME280;69440;52.118;5.408;2024-02-26T01:48:44;100115.03;;;5.37;100.00
80128;BME280;69440;52.118;5.408;2024-02-26T01:51:12;100114.94;;;5.39;100.00
80128;BME280;69440;52.118;5.408;2024-02-26T01:53:40;100119.41;;;5.38;100.00
80128;BME280;69440;52.118;5.408;2024-02-26T01:56:07;100126.53;;;5.38;100.00
80128;BME280;69440;52.118;5.408;2024-02-26T01:58:35;100129.06;;;5.41;100.00
80128;BME280;69440;52.118;5.408;2024-02-26T02:01:02;100128.91;;;5.44;100.00
80128;BME280;69440;52.118;5.408;2024-02-26T02:03:30;100133.28;;;5.45;100.00
80128;BME280;69440;52.118;5.408;2024-02-26T02:05:57;100133.38;;;5.43;100.00
80128;BME280;69440;52.118;5.408;2024-02-26T02:08:23;100129.84;;;5.43;100.00
80128;BME280;69440;52.118;5.408;2024-02-26T02:10:50;100140.56;;;5.41;100.00
80128;BME280;69440;52.118;5.408;2024-02-26T02:13:17;100137.19;;;5.38;100.00
80128;BME280;69440;52.118;5.408;2024-02-26T02:15:43;100139.06;;;5.36;100.00
80128;BME280;69440;52.118;5.408;2024-02-26T02:18:10;100141.03;;;5.32;100.00
80128;BME280;69440;52.118;5.408;2024-02-26T02:20:36;100144.63;;;5.31;100.00
80128;BME280;69440;52.118;5.408;2024-02-26T02:23:03;100149.66;;;5.37;100.00
80128;BME280;69440;52.118;5.408;2024-02-26T02:25:29;100153.25;;;5.36;100.00
80128;BME280;69440;52.118;5.408;2024-02-26T02:27:56;100156.72;;;5.38;100.00
80128;BME280;69440;52.118;5.408;2024-02-26T02:30:26;100153.09;;;5.39;100.00
80128;BME280;69440;52.118;5.408;2024-02-26T02:32:55;100149.59;;;5.39;100.00
80128;BME280;69440;52.118;5.408;2024-02-26T02:35:22;100154.91;;;5.39;100.00
80128;BME280;69440;52.118;5.408;2024-02-26T02:37:49;100158.38;;;5.41;100.00
80128;BME280;69440;52.118;5.408;2024-02-26T02:40:16;100168.16;;;5.40;100.00
80128;BME280;69440;52.118;5.408;2024-02-26T02:42:42;100165.25;;;5.45;100.00
80128;BME280;69440;52.118;5.408;2024-02-26T02:45:09;100167.94;;;5.45;100.00
80128;BME280;69440;52.118;5.408;2024-02-26T02:47:36;100174.13;;;5.45;100.00
80128;BME280;69440;52.118;5.408;2024-02-26T02:50:04;100173.19;;;5.46;100.00
80128;BME280;69440;52.118;5.408;2024-02-26T02:52:31;100174.97;;;5.46;100.00
80128;BME280;69440;52.118;5.408;2024-02-26T02:54:58;100169.81;;;5.43;100.00
80128;BME280;69440;52.118;5.408;2024-02-26T02:57:24;100178.59;;;5.45;100.00
80128;BME280;69440;52.118;5.408;2024-02-26T02:59:51;100180.38;;;5.44;100.00
80128;BME280;69440;52.118;5.408;2024-02-26T03:02:18;100183.13;;;5.43;100.00
80128;BME280;69440;52.118;5.408;2024-02-26T03:04:44;100191.03;;;5.44;100.00
80128;BME280;69440;52.118;5.408;2024-02-26T03:07:11;100193.72;;;5.44;100.00
80128;BME280;69440;52.118;5.408;2024-02-26T03:09:37;100197.25;;;5.45;100.00
80128;BME280;69440;52.118;5.408;2024-02-26T03:12:04;100206.09;;;5.45;100.00
80128;BME280;69440;52.118;5.408;2024-02-26T03:14:31;100214.16;;;5.44;100.00
80128;BME280;69440;52.118;5.408;2024-02-26T03:16:57;100216.69;;;5.47;100.00
80128;BME280;69440;52.118;5.408;2024-02-26T03:19:24;100217.63;;;5.46;100.00
80128;BME280;69440;52.118;5.408;2024-02-26T03:21:52;100226.47;;;5.46;100.00
80128;BME280;69440;52.118;5.408;2024-02-26T03:24:19;100224.53;;;5.50;100.00
80128;BME280;69440;52.118;5.408;2024-02-26T03:26:45;100223.66;;;5.49;100.00
80128;BME280;69440;52.118;5.408;2024-02-26T03:29:12;100218.34;;;5.49;100.00
80128;BME280;69440;52.118;5.408;2024-02-26T03:31:38;100215.66;;;5.49;100.00
80128;BME280;69440;52.118;5.408;2024-02-26T03:34:04;100227.34;;;5.47;100.00
80128;BME280;69440;52.118;5.408;2024-02-26T03:36:31;100221.16;;;5.46;100.00
80128;BME280;69440;52.118;5.408;2024-02-26T03:38:57;100225.84;;;5.41;100.00
80128;BME280;69440;52.118;5.408;2024-02-26T03:41:25;100230.31;;;5.41;100.00
80128;BME280;69440;52.118;5.408;2024-02-26T03:43:51;100226.00;;;5.38;100.00
80128;BME280;69440;52.118;5.408;2024-02-26T03:46:18;100229.59;;;5.37;100.00
80128;BME280;69440;52.118;5.408;2024-02-26T03:48:44;100230.53;;;5.36;100.00
80128;BME280;69440;52.118;5.408;2024-02-26T03:51:11;100228.94;;;5.32;100.00
80128;BME280;69440;52.118;5.408;2024-02-26T03:53:37;100233.41;;;5.32;100.00
80128;BME280;69440;52.118;5.408;2024-02-26T03:56:05;100232.63;;;5.29;100.00
80128;BME280;69440;52.118;5.408;2024-02-26T03:58:32;100237.94;;;5.29;100.00
80128;BME280;69440;52.118;5.408;2024-02-26T04:00:59;100242.41;;;5.29;100.00
80128;BME280;69440;52.118;5.408;2024-02-26T04:03:26;100235.50;;;5.25;100.00
80128;BME280;69440;52.118;5.408;2024-02-26T04:05:53;100221.41;;;5.23;100.00
80128;BME280;69440;52.118;5.408;2024-02-26T04:08:19;100244.59;;;5.21;100.00
80128;BME280;69440;52.118;5.408;2024-02-26T04:10:46;100235.59;;;5.23;100.00
80128;BME280;69440;52.118;5.408;2024-02-26T04:13:12;100245.16;;;5.27;100.00
80128;BME280;69440;52.118;5.408;2024-02-26T04:15:39;100238.88;;;5.28;100.00
80128;BME280;69440;52.118;5.408;2024-02-26T04:18:05;100242.41;;;5.29;100.00
80128;BME280;69440;52.118;5.408;2024-02-26T04:20:32;100239.75;;;5.29;100.00
80128;BME280;69440;52.118;5.408;2024-02-26T04:22:59;100256.66;;;5.28;100.00
80128;BME280;69440;52.118;5.408;2024-02-26T04:25:25;100245.38;;;5.23;100.00
80128;BME280;69440;52.118;5.408;2024-02-26T04:27:51;100255.03;;;5.25;100.00
80128;BME280;69440;52.118;5.408;2024-02-26T04:30:18;100262.94;;;5.27;100.00
80128;BME280;69440;52.118;5.408;2024-02-26T04:32:45;100260.19;;;5.28;100.00
80128;BME280;69440;52.118;5.408;2024-02-26T04:35:11;100262.00;;;5.28;100.00
80128;BME280;69440;52.118;5.408;2024-02-26T04:37:38;100263.81;;;5.27;100.00
80128;BME280;69440;52.118;5.408;2024-02-26T04:40:05;100272.59;;;5.29;100.00
80128;BME280;69440;52.118;5.408;2024-02-26T04:42:32;100270.06;;;5.26;100.00
80128;BME280;69440;52.118;5.408;2024-02-26T04:44:58;100268.19;;;5.28;100.00
80128;BME280;69440;52.118;5.408;2024-02-26T04:47:24;100271.66;;;5.30;100.00
80128;BME280;69440;52.118;5.408;2024-02-26T04:49:51;100267.09;;;5.33;100.00
80128;BME280;69440;52.118;5.408;2024-02-26T04:52:19;100276.75;;;5.35;100.00
80128;BME280;69440;52.118;5.408;2024-02-26T04:54:45;100268.84;;;5.34;100.00
80128;BME280;69440;52.118;5.408;2024-02-26T04:57:12;100280.50;;;5.31;100.00
80128;BME280;69440;52.118;5.408;2024-02-26T04:59:38;100275.19;;;5.31;100.00
80128;BME280;69440;52.118;5.408;2024-02-26T05:02:07;100277.69;;;5.34;100.00
80128;BME280;69440;52.118;5.408;2024-02-26T05:04:33;100279.50;;;5.34;100.00
80128;BME280;69440;52.118;5.408;2024-02-26T05:07:00;100287.50;;;5.34;100.00
80128;BME280;69440;52.118;5.408;2024-02-26T05:09:26;100287.50;;;5.34;100.00
80128;BME280;69440;52.118;5.408;2024-02-26T05:11:53;100293.81;;;5.31;100.00
80128;BME280;69440;52.118;5.408;2024-02-26T05:14:19;100290.22;;;5.32;100.00
80128;BME280;69440;52.118;5.408;2024-02-26T05:16:46;100285.63;;;5.36;100.00
80128;BME280;69440;52.118;5.408;2024-02-26T05:19:13;100281.28;;;5.33;100.00
80128;BME280;69440;52.118;5.408;2024-02-26T05:21:39;100294.69;;;5.32;100.00
80128;BME280;69440;52.118;5.408;2024-02-26T05:24:06;100297.28;;;5.33;100.00
80128;BME280;69440;52.118;5.408;2024-02-26T05:26:33;100284.75;;;5.35;100.00
80128;BME280;69440;52.118;5.408;2024-02-26T05:28:59;100291.00;;;5.34;100.00
80128;BME280;69440;52.118;5.408;2024-02-26T05:31:26;100286.69;;;5.32;100.00
80128;BME280;69440;52.118;5.408;2024-02-26T05:33:53;100298.38;;;5.29;100.00
80128;BME280;69440;52.118;5.408;2024-02-26T05:36:21;100299.28;;;5.28;100.00
80128;BME280;69440;52.118;5.408;2024-02-26T05:38:49;100301.03;;;5.29;100.00
80128;BME280;69440;52.118;5.408;2024-02-26T05:41:16;100302.03;;;5.26;100.00
80128;BME280;69440;52.118;5.408;2024-02-26T05:43:46;100299.50;;;5.23;100.00
80128;BME280;69440;52.118;5.408;2024-02-26T05:46:12;100303.03;;;5.24;100.00
80128;BME280;69440;52.118;5.408;2024-02-26T05:48:39;100302.97;;;5.25;100.00
80128;BME280;69440;52.118;5.408;2024-02-26T05:51:05;100321.63;;;5.25;100.00
80128;BME280;69440;52.118;5.408;2024-02-26T05:53:32;100316.28;;;5.25;100.00
80128;BME280;69440;52.118;5.408;2024-02-26T05:55:59;100319.09;;;5.22;100.00
80128;BME280;69440;52.118;5.408;2024-02-26T05:58:25;100317.28;;;5.23;100.00
80128;BME280;69440;52.118;5.408;2024-02-26T06:00:52;100327.09;;;5.22;100.00
80128;BME280;69440;52.118;5.408;2024-02-26T06:03:18;100326.22;;;5.22;100.00
80128;BME280;69440;52.118;5.408;2024-02-26T06:05:45;100332.47;;;5.21;100.00
80128;BME280;69440;52.118;5.408;2024-02-26T06:08:12;100326.06;;;5.25;100.00
80128;BME280;69440;52.118;5.408;2024-02-26T06:10:39;100326.06;;;5.25;100.00
80128;BME280;69440;52.118;5.408;2024-02-26T06:13:05;100332.28;;;5.25;100.00
80128;BME280;69440;52.118;5.408;2024-02-26T06:15:31;100331.34;;;5.26;100.00
80128;BME280;69440;52.118;5.408;2024-02-26T06:17:58;100337.59;;;5.25;100.00
80128;BME280;69440;52.118;5.408;2024-02-26T06:20:25;100339.47;;;5.23;100.00
80128;BME280;69440;52.118;5.408;2024-02-26T06:22:51;100341.19;;;5.24;100.00
80128;BME280;69440;52.118;5.408;2024-02-26T06:25:18;100356.09;;;5.28;100.00
80128;BME280;69440;52.118;5.408;2024-02-26T06:27:44;100347.31;;;5.26;100.00
80128;BME280;69440;52.118;5.408;2024-02-26T06:30:11;100353.50;;;5.27;100.00
80128;BME280;69440;52.118;5.408;2024-02-26T06:32:38;100359.84;;;5.24;100.00
80128;BME280;69440;52.118;5.408;2024-02-26T06:35:05;100353.72;;;5.22;100.00
80128;BME280;69440;52.118;5.408;2024-02-26T06:37:34;100369.56;;;5.25;100.00
80128;BME280;69440;52.118;5.408;2024-02-26T06:40:01;100376.69;;;5.25;100.00
80128;BME280;69440;52.118;5.408;2024-02-26T06:42:30;100360.63;;;5.26;100.00
80128;BME280;69440;52.118;5.408;2024-02-26T06:44:57;100374.03;;;5.25;100.00
80128;BME280;69440;52.118;5.408;2024-02-26T06:47:24;100375.03;;;5.22;100.00
80128;BME280;69440;52.118;5.408;2024-02-26T06:49:50;100380.22;;;5.25;100.00
80128;BME280;69440;52.118;5.408;2024-02-26T06:52:17;100378.56;;;5.23;100.00
80128;BME280;69440;52.118;5.408;2024-02-26T06:54:43;100385.75;;;5.21;100.00
80128;BME280;69440;52.118;5.408;2024-02-26T06:57:11;100384.69;;;5.25;100.00
80128;BME280;69440;52.118;5.408;2024-02-26T06:59:38;100389.16;;;5.24;100.00
80128;BME280;69440;52.118;5.408;2024-02-26T07:02:05;100398.00;;;5.25;100.00
80128;BME280;69440;52.118;5.408;2024-02-26T07:04:31;100386.56;;;5.23;100.00
80128;BME280;69440;52.118;5.408;2024-02-26T07:07:00;100393.63;;;5.24;100.00
80128;BME280;69440;52.118;5.408;2024-02-26T07:09:27;100402.34;;;5.27;100.00
80128;BME280;69440;52.118;5.408;2024-02-26T07:11:53;100402.19;;;5.30;100.00
80128;BME280;69440;52.118;5.408;2024-02-26T07:14:21;100408.97;;;5.38;100.00
80128;BME280;69440;52.118;5.408;2024-02-26T07:16:48;100415.16;;;5.38;100.00
80128;BME280;69440;52.118;5.408;2024-02-26T07:19:15;100415.97;;;5.40;100.00
80128;BME280;69440;52.118;5.408;2024-02-26T07:21:41;100423.75;;;5.45;100.00
80128;BME280;69440;52.118;5.408;2024-02-26T07:24:08;100425.75;;;5.40;100.00
80128;BME280;69440;52.118;5.408;2024-02-26T07:26:35;100422.09;;;5.42;100.00
80128;BME280;69440;52.118;5.408;2024-02-26T07:29:01;100426.41;;;5.45;100.00
80128;BME280;69440;52.118;5.408;2024-02-26T07:31:27;100427.34;;;5.44;100.00
80128;BME280;69440;52.118;5.408;2024-02-26T07:33:54;100428.28;;;5.43;100.00
80128;BME280;69440;52.118;5.408;2024-02-26T07:36:21;100427.28;;;5.45;100.00
80128;BME280;69440;52.118;5.408;2024-02-26T07:38:47;100442.19;;;5.49;100.00
80128;BME280;69440;52.118;5.408;2024-02-26T07:41:15;100432.34;;;5.51;100.00
80128;BME280;69440;52.118;5.408;2024-02-26T07:43:42;100435.03;;;5.51;100.00
80128;BME280;69440;52.118;5.408;2024-02-26T07:46:11;100443.81;;;5.53;100.00
80128;BME280;69440;52.118;5.408;2024-02-26T07:48:38;100444.47;;;5.58;100.00
80128;BME280;69440;52.118;5.408;2024-02-26T07:51:04;100447.63;;;5.67;100.00
80128;BME280;69440;52.118;5.408;2024-02-26T07:53:31;100452.25;;;5.63;100.00
80128;BME280;69440;52.118;5.408;2024-02-26T07:55:57;100454.72;;;5.68;100.00
80128;BME280;69440;52.118;5.408;2024-02-26T07:58:24;100469.91;;;5.66;100.00
80128;BME280;69440;52.118;5.408;2024-02-26T08:00:50;100466.38;;;5.65;100.00
80128;BME280;69440;52.118;5.408;2024-02-26T08:03:17;100473.50;;;5.65;100.00
80128;BME280;69440;52.118;5.408;2024-02-26T08:05:44;100468.53;;;5.76;100.00
80128;BME280;69440;52.118;5.408;2024-02-26T08:08:10;100468.41;;;5.79;100.00
80128;BME280;69440;52.118;5.408;2024-02-26T08:10:37;100475.41;;;5.81;100.00
80128;BME280;69440;52.118;5.408;2024-02-26T08:13:03;100477.81;;;5.87;100.00
80128;BME280;69440;52.118;5.408;2024-02-26T08:15:33;100487.53;;;5.88;100.00
80128;BME280;69440;52.118;5.408;2024-02-26T08:18:03;100481.22;;;5.91;100.00
80128;BME280;69440;52.118;5.408;2024-02-26T08:20:31;100491.16;;;5.87;100.00
80128;BME280;69440;52.118;5.408;2024-02-26T08:22:57;100498.53;;;5.81;100.00
80128;BME280;69440;52.118;5.408;2024-02-26T08:25:24;100487.63;;;5.87;100.00
80128;BME280;69440;52.118;5.408;2024-02-26T08:27:51;100495.75;;;5.84;100.00
80128;BME280;69440;52.118;5.408;2024-02-26T08:30:18;100497.22;;;5.91;100.00
80128;BME280;69440;52.118;5.408;2024-02-26T08:32:48;100495.22;;;5.96;100.00
80128;BME280;69440;52.118;5.408;2024-02-26T08:35:18;100507.34;;;5.83;100.00
80128;BME280;69440;52.118;5.408;2024-02-26T08:37:46;100505.81;;;5.98;100.00
80128;BME280;69440;52.118;5.408;2024-02-26T08:40:13;100507.69;;;5.96;100.00
80128;BME280;69440;52.118;5.408;2024-02-26T08:42:40;100513.47;;;6.05;100.00
80128;BME280;69440;52.118;5.408;2024-02-26T08:45:07;100507.34;;;6.03;100.00
80128;BME280;69440;52.118;5.408;2024-02-26T08:47:34;100521.75;;;5.99;100.00
80128;BME280;69440;52.118;5.408;2024-02-26T08:50:01;100513.09;;;5.94;100.00
80128;BME280;69440;52.118;5.408;2024-02-26T08:52:28;100522.75;;;5.97;100.00
80128;BME280;69440;52.118;5.408;2024-02-26T08:54:55;100523.06;;;6.09;100.00
80128;BME280;69440;52.118;5.408;2024-02-26T08:57:21;100529.16;;;6.13;100.00
80128;BME280;69440;52.118;5.408;2024-02-26T08:59:48;100530.00;;;6.13;100.00
80128;BME280;69440;52.118;5.408;2024-02-26T09:02:14;100545.25;;;6.10;100.00
80128;BME280;69440;52.118;5.408;2024-02-26T09:04:41;100542.72;;;6.07;100.00
80128;BME280;69440;52.118;5.408;2024-02-26T09:07:07;100548.13;;;6.05;100.00
80128;BME280;69440;52.118;5.408;2024-02-26T09:09:34;100552.31;;;5.92;100.00
80128;BME280;69440;52.118;5.408;2024-02-26T09:12:01;100549.81;;;6.08;100.00
80128;BME280;69440;52.118;5.408;2024-02-26T09:14:28;100550.09;;;6.02;100.00
80128;BME280;69440;52.118;5.408;2024-02-26T09:16:54;100560.03;;;5.98;100.00
80128;BME280;69440;52.118;5.408;2024-02-26T09:19:21;100556.63;;;5.95;100.00
80128;BME280;69440;52.118;5.408;2024-02-26T09:21:48;100547.50;;;6.00;100.00
80128;BME280;69440;52.118;5.408;2024-02-26T09:24:14;100560.09;;;5.97;100.00
80128;BME280;69440;52.118;5.408;2024-02-26T09:26:41;100568.31;;;5.92;100.00
80128;BME280;69440;52.118;5.408;2024-02-26T09:29:08;100565.81;;;5.87;100.00
80128;BME280;69440;52.118;5.408;2024-02-26T09:31:35;100574.50;;;5.93;100.00
80128;BME280;69440;52.118;5.408;2024-02-26T09:34:01;100569.16;;;5.93;100.00
80128;BME280;69440;52.118;5.408;2024-02-26T09:36:29;100576.25;;;5.94;100.00
80128;BME280;69440;52.118;5.408;2024-02-26T09:38:56;100566.44;;;5.94;100.00
80128;BME280;69440;52.118;5.408;2024-02-26T09:41:30;100588.09;;;6.07;100.00
80128;BME280;69440;52.118;5.408;2024-02-26T09:43:57;100589.88;;;6.06;100.00
80128;BME280;69440;52.118;5.408;2024-02-26T09:46:25;100592.25;;;6.14;100.00
80128;BME280;69440;52.118;5.408;2024-02-26T09:48:52;100589.28;;;6.00;100.00
80128;BME280;69440;52.118;5.408;2024-02-26T09:51:22;100593.19;;;5.93;100.00
80128;BME280;69440;52.118;5.408;2024-02-26T09:53:52;100594.03;;;5.93;100.00
80128;BME280;69440;52.118;5.408;2024-02-26T09:56:19;100595.69;;;5.96;100.00
80128;BME280;69440;52.118;5.408;2024-02-26T09:58:47;100598.31;;;5.97;100.00
80128;BME280;69440;52.118;5.408;2024-02-26T10:01:18;100603.50;;;6.00;100.00
80128;BME280;69440;52.118;5.408;2024-02-26T10:03:52;100611.44;;;6.02;100.00
80128;BME280;69440;52.118;5.408;2024-02-26T10:06:21;100613.16;;;6.03;100.00
80128;BME280;69440;52.118;5.408;2024-02-26T10:08:48;100612.16;;;6.05;100.00
80128;BME280;69440;52.118;5.408;2024-02-26T10:11:15;100622.25;;;5.99;100.00
80128;BME280;69440;52.118;5.408;2024-02-26T10:13:42;100621.50;;;5.95;100.00
80128;BME280;69440;52.118;5.408;2024-02-26T10:16:09;100626.72;;;5.98;100.00
80128;BME280;69440;52.118;5.408;2024-02-26T10:18:51;100626.28;;;5.87;100.00
80128;BME280;69440;52.118;5.408;2024-02-26T10:21:22;100636.16;;;5.85;100.00
80128;BME280;69440;52.118;5.408;2024-02-26T10:23:49;100634.41;;;5.84;100.00
80128;BME280;69440;52.118;5.408;2024-02-26T10:26:16;100643.44;;;5.80;100.00
80128;BME280;69440;52.118;5.408;2024-02-26T10:28:44;100646.19;;;5.78;100.00
80128;BME280;69440;52.118;5.408;2024-02-26T10:31:11;100653.31;;;5.78;100.00
80128;BME280;69440;52.118;5.408;2024-02-26T10:33:40;100654.97;;;5.80;100.00
80128;BME280;69440;52.118;5.408;2024-02-26T10:36:09;100651.44;;;5.80;100.00
80128;BME280;69440;52.118;5.408;2024-02-26T10:38:37;100661.25;;;5.79;100.00
80128;BME280;69440;52.118;5.408;2024-02-26T10:41:04;100670.25;;;5.77;100.00
80128;BME280;69440;52.118;5.408;2024-02-26T10:43:32;100671.31;;;5.73;100.00
80128;BME280;69440;52.118;5.408;2024-02-26T10:45:58;100676.59;;;5.74;100.00
80128;BME280;69440;52.118;5.408;2024-02-26T10:48:25;100674.47;;;5.82;100.00
80128;BME280;69440;52.118;5.408;2024-02-26T10:50:52;100688.56;;;5.86;100.00
80128;BME280;69440;52.118;5.408;2024-02-26T10:53:23;100678.81;;;5.85;100.00
80128;BME280;69440;52.118;5.408;2024-02-26T10:55:55;100684.84;;;5.90;100.00
80128;BME280;69440;52.118;5.408;2024-02-26T10:58:23;100695.25;;;5.96;100.00
80128;BME280;69440;52.118;5.408;2024-02-26T11:00:52;100698.06;;;5.93;100.00
80128;BME280;69440;52.118;5.408;2024-02-26T11:03:20;100701.38;;;5.98;100.00
80128;BME280;69440;52.118;5.408;2024-02-26T11:05:48;100703.06;;;6.01;100.00
80128;BME280;69440;52.118;5.408;2024-02-26T11:08:19;100702.84;;;6.05;100.00
80128;BME280;69440;52.118;5.408;2024-02-26T11:10:48;100710.56;;;6.13;100.00
80128;BME280;69440;52.118;5.408;2024-02-26T11:13:18;100714.75;;;6.18;100.00
80128;BME280;69440;52.118;5.408;2024-02-26T11:15:48;100713.25;;;6.11;100.00
80128;BME280;69440;52.118;5.408;2024-02-26T11:18:16;100722.34;;;6.07;100.00
80128;BME280;69440;52.118;5.408;2024-02-26T11:20:46;100724.34;;;6.02;100.00
80128;BME280;69440;52.118;5.408;2024-02-26T11:23:12;100723.41;;;6.03;100.00
80128;BME280;69440;52.118;5.408;2024-02-26T11:25:39;100722.59;;;6.01;100.00
80128;BME280;69440;52.118;5.408;2024-02-26T11:28:12;100719.66;;;6.07;100.00
80128;BME280;69440;52.118;5.408;2024-02-26T11:30:44;100725.72;;;6.11;100.00
80128;BME280;69440;52.118;5.408;2024-02-26T11:33:13;100731.03;;;6.12;100.00
80128;BME280;69440;52.118;5.408;2024-02-26T11:35:41;100729.34;;;6.10;100.00
80128;BME280;69440;52.118;5.408;2024-02-26T11:38:08;100741.50;;;6.17;100.00
80128;BME280;69440;52.118;5.408;2024-02-26T11:40:38;100741.72;;;6.12;100.00
80128;BME280;69440;52.118;5.408;2024-02-26T11:43:05;100742.88;;;6.05;100.00
80128;BME280;69440;52.118;5.408;2024-02-26T11:48:12;100751.13;;;5.99;100.00
80128;BME280;69440;52.118;5.408;2024-02-26T11:50:41;100757.22;;;6.03;100.00
80128;BME280;69440;52.118;5.408;2024-02-26T11:53:27;100763.47;;;6.02;100.00
80128;BME280;69440;52.118;5.408;2024-02-26T11:59:00;100763.47;;;6.02;100.00
80128;BME280;69440;52.118;5.408;2024-02-26T12:01:46;100765.16;;;6.04;100.00
80128;BME280;69440;52.118;5.408;2024-02-26T12:04:21;100772.03;;;6.10;100.00
80128;BME280;69440;52.118;5.408;2024-02-26T12:06:53;100764.88;;;6.10;100.00
80128;BME280;69440;52.118;5.408;2024-02-26T12:09:41;100774.47;;;6.16;100.00
80128;BME280;69440;52.118;5.408;2024-02-26T12:12:09;100773.72;;;6.12;100.00
80128;BME280;69440;52.118;5.408;2024-02-26T12:14:40;100780.81;;;6.12;100.00
80128;BME280;69440;52.118;5.408;2024-02-26T12:17:19;100782.59;;;6.13;100.00
80128;BME280;69440;52.118;5.408;2024-02-26T12:19:45;100783.50;;;6.12;100.00
80128;BME280;69440;52.118;5.408;2024-02-26T12:22:13;100786.06;;;6.15;100.00
80128;BME280;69440;52.118;5.408;2024-02-26T12:24:41;100793.28;;;6.13;100.00
80128;BME280;69440;52.118;5.408;2024-02-26T12:27:08;100795.06;;;6.12;100.00
80128;BME280;69440;52.118;5.408;2024-02-26T12:29:34;100797.66;;;6.14;100.00
80128;BME280;69440;52.118;5.408;2024-02-26T12:32:01;100801.31;;;6.11;100.00
80128;BME280;69440;52.118;5.408;2024-02-26T12:34:33;100811.69;;;6.19;100.00
80128;BME280;69440;52.118;5.408;2024-02-26T12:37:00;100806.34;;;6.19;100.00
80128;BME280;69440;52.118;5.408;2024-02-26T12:39:27;100804.34;;;6.24;100.00
80128;BME280;69440;52.118;5.408;2024-02-26T12:41:57;100805.88;;;6.30;100.00
80128;BME280;69440;52.118;5.408;2024-02-26T12:44:26;100807.75;;;6.28;100.00
80128;BME280;69440;52.118;5.408;2024-02-26T12:47:03;100804.09;;;6.30;100.00
80128;BME280;69440;52.118;5.408;2024-02-26T12:49:30;100810.16;;;6.34;100.00
80128;BME280;69440;52.118;5.408;2024-02-26T12:51:57;100810.84;;;6.39;100.00
80128;BME280;69440;52.118;5.408;2024-02-26T12:54:31;100821.84;;;6.31;100.00
80128;BME280;69440;52.118;5.408;2024-02-26T12:57:00;100819.91;;;6.35;100.00